Time;durP1;ratioP1;P1;durP2;ratioP2;P2;SDS_P1;SDS_P2;PMS_P1;PMS_P2;Temp;Humidity;BMP_temperature;BMP_pressure;BME280_temperature;BME280_humidity;BME280_pressure;Samples;Min_cycle;Max_cycle;Signal;HPM_P1;HPM_P2
2022/02/17 00:00:44;;;;;;;2.97;1.02;;;17.70;58.00;;;;;;5054559;28;20680;-60
2022/02/17 00:03:10;;;;;;;3.28;1.40;;;17.70;58.00;;;;;;5053677;28;20194;-60
2022/02/17 00:05:39;;;;;;;3.28;1.48;;;17.70;57.90;;;;;;5054407;28;20171;-60
2022/02/17 00:08:04;;;;;;;4.07;1.50;;;17.70;57.90;;;;;;5054246;28;20332;-61
2022/02/17 00:10:30;;;;;;;3.67;1.25;;;17.70;58.00;;;;;;5053941;28;20178;-62
2022/02/17 00:12:57;;;;;;;3.42;1.83;;;17.60;57.90;;;;;;5054112;28;20281;-64
2022/02/17 00:15:23;;;;;;;4.38;1.75;;;17.60;58.00;;;;;;5053680;28;20175;-63
2022/02/17 00:17:48;;;;;;;4.78;1.88;;;17.60;57.90;;;;;;5054411;28;20187;-62
2022/02/17 00:20:14;;;;;;;4.97;1.52;;;17.60;58.00;;;;;;5054009;28;20183;-63
2022/02/17 00:22:40;;;;;;;5.63;1.65;;;17.60;58.00;;;;;;5053714;28;20186;-61
2022/02/17 00:25:06;;;;;;;3.17;1.50;;;17.60;58.00;;;;;;5054098;28;20167;-60
2022/02/17 00:27:31;;;;;;;4.05;1.67;;;17.60;57.90;;;;;;5054183;28;20673;-60
2022/02/17 00:29:56;;;;;;;3.70;1.23;;;17.60;58.00;;;;;;5052991;28;20214;-60
2022/02/17 00:32:22;;;;;;;3.17;1.40;;;17.60;58.00;;;;;;5054021;28;20650;-60
2022/02/17 00:34:47;;;;;;;4.45;1.80;;;17.60;58.10;;;;;;5053875;28;20237;-60
2022/02/17 00:37:13;;;;;;;2.92;1.33;;;17.60;58.00;;;;;;5052937;28;20213;-61
2022/02/17 00:39:38;;;;;;;4.40;1.67;;;17.60;58.20;;;;;;5053811;28;20591;-61
2022/02/17 00:42:04;;;;;;;4.53;1.85;;;17.60;58.00;;;;;;5053494;28;20638;-62
2022/02/17 00:44:30;;;;;;;3.72;1.48;;;17.60;58.00;;;;;;5053162;28;20186;-61
2022/02/17 00:46:55;;;;;;;4.03;1.50;;;17.60;57.90;;;;;;5053320;28;20167;-61
2022/02/17 00:49:26;;;;;;;5.32;1.77;;;17.60;58.00;;;;;;5053485;28;20213;-61
2022/02/17 00:51:52;;;;;;;2.85;1.58;;;17.50;58.00;;;;;;5053084;28;20184;-62
2022/02/17 00:54:17;;;;;;;2.20;1.30;;;17.50;58.10;;;;;;5053686;28;20195;-62
2022/02/17 00:56:44;;;;;;;4.82;1.73;;;17.50;58.00;;;;;;5053364;28;20223;-62
2022/02/17 00:59:10;;;;;;;2.63;1.60;;;17.50;58.00;;;;;;5052518;28;20186;-60
2022/02/17 01:01:36;;;;;;;2.85;1.52;;;17.50;58.00;;;;;;5053376;28;20534;-60
2022/02/17 01:04:01;;;;;;;6.30;1.92;;;17.50;58.00;;;;;;5052916;28;20261;-60
2022/02/17 01:06:27;;;;;;;4.85;1.98;;;17.50;58.00;;;;;;5052806;28;20186;-60
2022/02/17 01:08:52;;;;;;;3.85;1.63;;;17.50;58.00;;;;;;5053511;28;20340;-61
2022/02/17 01:11:18;;;;;;;3.72;1.90;;;17.50;58.00;;;;;;5053372;28;20645;-63
2022/02/17 01:13:43;;;;;;;3.60;1.75;;;17.50;58.10;;;;;;5052552;28;20610;-65
2022/02/17 01:16:08;;;;;;;3.85;1.67;;;17.50;58.20;;;;;;5052895;28;20186;-63
2022/02/17 01:18:34;;;;;;;3.25;1.95;;;17.50;58.20;;;;;;5052256;28;20171;-62
2022/02/17 01:20:59;;;;;;;4.68;1.90;;;17.40;58.10;;;;;;5052910;28;20699;-62
2022/02/17 01:23:25;;;;;;;4.22;1.80;;;17.50;58.10;;;;;;5052988;28;20198;-61
2022/02/17 01:25:51;;;;;;;3.58;1.63;;;17.40;58.10;;;;;;5052371;28;20167;-61
2022/02/17 01:28:16;;;;;;;4.25;1.45;;;17.50;58.10;;;;;;5052651;28;20513;-60
2022/02/17 01:30:42;;;;;;;4.10;1.65;;;17.40;57.90;;;;;;5052917;28;20303;-60
2022/02/17 01:33:07;;;;;;;3.08;1.30;;;17.40;58.00;;;;;;5051635;28;20171;-60
2022/02/17 01:35:33;;;;;;;4.32;1.77;;;17.40;57.90;;;;;;5052650;28;20626;-60
2022/02/17 01:37:59;;;;;;;3.70;1.63;;;17.40;58.00;;;;;;5052662;28;20660;-61
2022/02/17 01:40:24;;;;;;;4.28;1.50;;;17.40;58.00;;;;;;5052099;28;20167;-60
2022/02/17 01:42:50;;;;;;;3.75;1.40;;;17.40;57.90;;;;;;5052625;28;20171;-61
2022/02/17 01:45:15;;;;;;;3.35;1.30;;;17.40;58.00;;;;;;5052333;28;20179;-60
2022/02/17 01:47:45;;;;;;;4.18;1.50;;;17.40;58.00;;;;;;5051681;28;20207;-61
2022/02/17 01:50:10;;;;;;;4.47;1.67;;;17.40;58.00;;;;;;5052416;28;20183;-61
2022/02/17 01:52:36;;;;;;;6.00;1.92;;;17.40;58.00;;;;;;5052503;28;20521;-62
2022/02/17 01:55:02;;;;;;;2.60;1.30;;;17.40;58.00;;;;;;5051441;28;20219;-62
2022/02/17 01:57:27;;;;;;;4.13;1.48;;;17.40;58.00;;;;;;5051729;28;20305;-60
2022/02/17 01:59:53;;;;;;;3.53;1.50;;;17.40;58.00;;;;;;5071488;28;20189;-60
2022/02/17 02:02:19;;;;;;;2.63;1.05;;;17.40;57.90;;;;;;5071447;28;20669;-60
2022/02/17 02:04:44;;;;;;;3.60;1.40;;;17.30;57.80;;;;;;5072145;28;20182;-60
2022/02/17 02:07:10;;;;;;;5.28;1.98;;;17.30;57.90;;;;;;5072086;28;20209;-60
2022/02/17 02:09:36;;;;;;;3.97;1.52;;;17.30;57.80;;;;;;5071469;28;20689;-60
2022/02/17 02:12:02;;;;;;;4.20;1.67;;;17.30;57.80;;;;;;5071720;28;20695;-63
2022/02/17 02:14:27;;;;;;;2.45;1.55;;;17.30;57.80;;;;;;5071840;28;20248;-62
2022/02/17 02:16:53;;;;;;;4.13;1.35;;;17.30;57.90;;;;;;5070958;28;20212;-64
2022/02/17 02:19:19;;;;;;;4.45;1.70;;;17.30;57.80;;;;;;5072224;28;20259;-62
2022/02/17 02:21:45;;;;;;;4.35;1.60;;;17.30;57.80;;;;;;5071974;28;20252;-61
2022/02/17 02:24:10;;;;;;;5.13;2.00;;;17.30;57.80;;;;;;5070681;28;20587;-63
2022/02/17 02:26:36;;;;;;;6.85;2.03;;;17.30;57.80;;;;;;5071803;28;20178;-60
2022/02/17 02:29:04;;;;;;;5.53;1.65;;;17.30;57.80;;;;;;5070681;28;20273;-61
2022/02/17 02:31:30;;;;;;;3.95;1.70;;;17.30;57.70;;;;;;5071724;28;20170;-60
2022/02/17 02:33:55;;;;;;;3.83;1.73;;;17.30;57.80;;;;;;5071461;28;20274;-60
2022/02/17 02:36:21;;;;;;;3.25;1.77;;;17.30;57.70;;;;;;5071212;28;20170;-60
2022/02/17 02:38:46;;;;;;;3.85;1.60;;;17.30;57.70;;;;;;5071750;28;20641;-61
2022/02/17 02:41:12;;;;;;;3.67;1.92;;;17.30;57.70;;;;;;5071483;28;20186;-60
2022/02/17 02:43:38;;;;;;;5.65;2.17;;;17.20;57.70;;;;;;5071096;28;20174;-60
2022/02/17 02:46:04;;;;;;;5.97;2.22;;;17.20;57.70;;;;;;5071353;28;20175;-61
2022/02/17 02:48:29;;;;;;;9.05;2.78;;;17.20;57.70;;;;;;5071552;28;20214;-61
2022/02/17 02:50:55;;;;;;;4.78;1.92;;;17.20;57.70;;;;;;5070642;28;20172;-61
2022/02/17 02:53:20;;;;;;;5.20;2.13;;;17.20;57.70;;;;;;5071630;28;20171;-62
2022/02/17 02:55:47;;;;;;;6.43;2.10;;;17.20;57.70;;;;;;5067949;28;20686;-62
2022/02/17 02:58:13;;;;;;;4.72;1.88;;;17.20;57.70;;;;;;5050611;28;20262;-61
2022/02/17 03:00:39;;;;;;;4.53;1.67;;;17.20;57.70;;;;;;5051404;28;20615;-60
2022/02/17 03:03:05;;;;;;;5.03;2.15;;;17.20;57.70;;;;;;5051225;28;20645;-60
2022/02/17 03:05:30;;;;;;;5.85;2.00;;;17.20;57.70;;;;;;5050878;28;20253;-60
2022/02/17 03:07:56;;;;;;;4.20;2.20;;;17.20;57.70;;;;;;5051004;28;20211;-61
2022/02/17 03:10:21;;;;;;;5.75;2.28;;;17.20;57.70;;;;;;5051453;28;20595;-61
2022/02/17 03:12:47;;;;;;;4.35;1.95;;;17.20;57.70;;;;;;5053237;28;20228;-63
2022/02/17 03:15:13;;;;;;;5.65;2.10;;;17.20;57.70;;;;;;5055019;28;20175;-62
2022/02/17 03:17:38;;;;;;;5.30;2.10;;;17.20;57.70;;;;;;5055299;28;20178;-62
2022/02/17 03:20:07;;;;;;;5.68;2.17;;;17.20;57.70;;;;;;5054506;28;20229;-62
2022/02/17 03:22:34;;;;;;;4.32;2.22;;;17.20;57.60;;;;;;5055566;28;20190;-61
2022/02/17 03:24:59;;;;;;;5.13;1.80;;;17.10;57.60;;;;;;5054954;28;20262;-61
2022/02/17 03:27:26;;;;;;;5.65;1.77;;;17.10;57.60;;;;;;5054451;28;20254;-60
2022/02/17 03:29:51;;;;;;;6.43;2.50;;;17.10;57.70;;;;;;5055059;28;20274;-62
2022/02/17 03:32:17;;;;;;;6.20;2.35;;;17.10;57.60;;;;;;5054380;28;20649;-60
2022/02/17 03:34:42;;;;;;;6.10;2.22;;;17.10;57.60;;;;;;5055219;28;20228;-61
2022/02/17 03:37:08;;;;;;;6.43;2.45;;;17.10;57.60;;;;;;5054945;28;20171;-60
2022/02/17 03:39:33;;;;;;;4.55;2.13;;;17.10;57.40;;;;;;5054270;28;20182;-60
2022/02/17 03:41:59;;;;;;;5.03;2.30;;;17.10;57.50;;;;;;5054692;28;20213;-61
2022/02/17 03:44:24;;;;;;;6.10;2.10;;;17.10;57.50;;;;;;5054840;28;20179;-60
2022/02/17 03:46:50;;;;;;;6.13;2.33;;;17.10;57.40;;;;;;5054160;28;20523;-61
2022/02/17 03:49:15;;;;;;;5.00;2.40;;;17.10;57.30;;;;;;5054394;28;20211;-61
2022/02/17 03:51:41;;;;;;;6.13;2.53;;;17.10;57.40;;;;;;5054934;28;20186;-62
2022/02/17 03:54:06;;;;;;;5.60;2.03;;;17.10;57.40;;;;;;5053934;28;20199;-62
2022/02/17 03:56:32;;;;;;;7.22;2.13;;;17.00;57.30;;;;;;5054423;28;20314;-62
2022/02/17 03:59:00;;;;;;;6.32;2.40;;;17.10;57.40;;;;;;5054240;28;20240;-60
2022/02/17 04:01:26;;;;;;;8.52;2.60;;;17.00;57.30;;;;;;5053757;28;20602;-60
2022/02/17 04:03:52;;;;;;;4.68;1.80;;;17.00;57.30;;;;;;5054881;28;20206;-60
2022/02/17 04:06:17;;;;;;;7.22;2.75;;;17.00;57.20;;;;;;5054277;28;20534;-60
2022/02/17 04:08:43;;;;;;;5.85;2.33;;;17.00;57.20;;;;;;5053670;28;20202;-61
2022/02/17 04:11:08;;;;;;;7.32;2.75;;;17.00;57.20;;;;;;5054157;28;20178;-61
2022/02/17 04:13:34;;;;;;;7.32;2.10;;;17.00;57.20;;;;;;5054228;28;20186;-62
2022/02/17 04:15:59;;;;;;;5.68;2.00;;;17.00;57.10;;;;;;5053325;28;20642;-62
2022/02/17 04:18:25;;;;;;;6.63;2.20;;;16.90;57.10;;;;;;5054249;28;20201;-61
2022/02/17 04:20:50;;;;;;;4.28;2.13;;;17.00;57.10;;;;;;5054457;28;20171;-62
2022/02/17 04:23:16;;;;;;;4.63;2.00;;;17.00;57.10;;;;;;5053044;28;20285;-61
2022/02/17 04:25:41;;;;;;;5.32;2.00;;;17.00;57.20;;;;;;5054153;28;20179;-60
2022/02/17 04:28:07;;;;;;;7.28;2.15;;;17.00;57.10;;;;;;5053569;28;20753;-60
2022/02/17 04:30:32;;;;;;;6.70;2.10;;;16.90;57.00;;;;;;5053404;28;20167;-61
2022/02/17 04:33:01;;;;;;;5.82;1.90;;;17.00;57.10;;;;;;5053861;28;20186;-60
2022/02/17 04:35:27;;;;;;;5.78;2.92;;;17.00;57.00;;;;;;5053897;28;20179;-59
2022/02/17 04:37:52;;;;;;;5.90;2.33;;;17.00;57.00;;;;;;5053428;28;20176;-61
2022/02/17 04:40:18;;;;;;;6.88;2.30;;;16.90;57.00;;;;;;5053848;28;20183;-60
2022/02/17 04:42:43;;;;;;;7.30;2.20;;;17.00;57.00;;;;;;5052968;28;20658;-61
2022/02/17 04:45:09;;;;;;;9.57;2.78;;;16.90;57.00;;;;;;5053705;28;20164;-61
2022/02/17 04:47:34;;;;;;;6.55;2.47;;;16.90;56.90;;;;;;5053908;28;20222;-61
2022/02/17 04:50:00;;;;;;;5.53;2.25;;;16.90;57.00;;;;;;5052892;28;20552;-61
2022/02/17 04:52:25;;;;;;;5.82;2.42;;;16.90;56.90;;;;;;5053900;28;20528;-62
2022/02/17 04:54:52;;;;;;;5.78;2.30;;;16.90;57.00;;;;;;5053738;28;20183;-63
2022/02/17 04:57:17;;;;;;;6.15;2.25;;;16.90;56.90;;;;;;5052647;28;20222;-61
2022/02/17 04:59:43;;;;;;;9.27;2.83;;;16.90;57.00;;;;;;5053871;28;20177;-61
2022/02/17 05:02:09;;;;;;;7.18;2.50;;;16.90;57.00;;;;;;5053498;28;20548;-60
2022/02/17 05:04:34;;;;;;;6.28;2.38;;;16.90;57.00;;;;;;5053004;28;20630;-60
2022/02/17 05:07:00;;;;;;;8.38;3.13;;;16.90;56.90;;;;;;5053077;28;20627;-61
2022/02/17 05:09:25;;;;;;;5.18;2.30;;;16.90;57.00;;;;;;5053437;28;20218;-61
2022/02/17 05:11:51;;;;;;;6.80;2.50;;;16.90;56.90;;;;;;5052627;28;20194;-63
2022/02/17 05:14:16;;;;;;;6.70;2.47;;;16.90;56.90;;;;;;5052941;28;20240;-64
2022/02/17 05:16:42;;;;;;;6.78;2.22;;;16.90;56.90;;;;;;5053336;28;20168;-63
2022/02/17 05:19:07;;;;;;;8.02;3.08;;;16.90;56.90;;;;;;5052539;28;20187;-63
2022/02/17 05:21:33;;;;;;;4.55;2.03;;;16.90;56.90;;;;;;5053395;28;20178;-62
2022/02/17 05:23:58;;;;;;;6.03;2.60;;;16.90;56.90;;;;;;5053051;28;20182;-62
2022/02/17 05:26:24;;;;;;;6.57;2.40;;;16.90;56.90;;;;;;5052243;28;20178;-61
2022/02/17 05:28:49;;;;;;;6.90;2.30;;;16.80;56.80;;;;;;5053013;28;20674;-60
2022/02/17 05:31:15;;;;;;;5.22;1.90;;;16.80;56.90;;;;;;5052974;28;20225;-61
2022/02/17 05:33:40;;;;;;;8.43;3.30;;;16.80;56.80;;;;;;5052436;28;20254;-60
2022/02/17 05:36:06;;;;;;;4.78;2.10;;;16.80;56.80;;;;;;5051914;28;20171;-60
2022/02/17 05:38:31;;;;;;;4.68;2.28;;;16.80;56.80;;;;;;5052739;28;20175;-61
2022/02/17 05:40:57;;;;;;;4.97;2.15;;;16.80;56.70;;;;;;5051732;28;20671;-61
2022/02/17 05:43:22;;;;;;;8.30;2.58;;;16.80;56.70;;;;;;5052848;28;20167;-61
2022/02/17 05:45:48;;;;;;;7.07;2.63;;;16.80;56.70;;;;;;5052423;28;20262;-61
2022/02/17 05:48:13;;;;;;;6.07;1.90;;;16.80;56.80;;;;;;5051517;28;20225;-61
2022/02/17 05:50:39;;;;;;;6.18;2.05;;;16.80;56.80;;;;;;5052618;28;20183;-61
2022/02/17 05:53:04;;;;;;;6.68;2.45;;;16.70;56.80;;;;;;5051681;28;20171;-63
2022/02/17 05:55:30;;;;;;;4.57;2.08;;;16.70;56.80;;;;;;5052384;28;20169;-60
2022/02/17 05:57:56;;;;;;;7.13;2.60;;;16.70;56.80;;;;;;5052215;28;20184;-60
2022/02/17 06:00:21;;;;;;;5.75;2.50;;;16.70;56.80;;;;;;5051582;28;20544;-59
2022/02/17 06:02:46;;;;;;;5.07;2.63;;;16.70;56.80;;;;;;5052632;28;20194;-59
2022/02/17 06:05:18;;;;;;;6.03;2.20;;;16.80;56.80;;;;;;5052099;28;20179;-60
2022/02/17 06:07:44;;;;;;;4.97;2.00;;;16.80;56.80;;;;;;5051607;28;20203;-61
2022/02/17 06:10:10;;;;;;;3.25;1.55;;;16.70;56.80;;;;;;5052071;28;20275;-61
2022/02/17 06:12:45;;;;;;;6.63;2.30;;;16.70;56.70;;;;;;5052469;28;20261;-63
2022/02/17 06:15:13;;;;;;;7.75;2.35;;;16.70;56.80;;;;;;5051406;28;20183;-63
2022/02/17 06:17:39;;;;;;;5.50;2.42;;;16.70;56.80;;;;;;5052428;28;20186;-62
2022/02/17 06:20:05;;;;;;;7.10;2.50;;;16.70;56.80;;;;;;5051942;28;20175;-62
2022/02/17 06:22:30;;;;;;;6.70;2.70;;;16.70;56.80;;;;;;5051321;28;20179;-61
2022/02/17 06:24:56;;;;;;;7.38;2.55;;;16.70;56.80;;;;;;5051739;28;20183;-62
2022/02/17 06:27:21;;;;;;;6.22;2.53;;;16.70;56.80;;;;;;5052228;28;20190;-61
2022/02/17 06:29:47;;;;;;;4.35;2.10;;;16.70;56.80;;;;;;5051574;28;20175;-60
2022/02/17 06:32:13;;;;;;;5.07;2.15;;;16.70;56.80;;;;;;5051914;28;20199;-60
2022/02/17 06:34:38;;;;;;;4.75;2.13;;;16.70;56.80;;;;;;5052197;28;20183;-60
2022/02/17 06:37:04;;;;;;;6.78;2.17;;;16.70;56.70;;;;;;5051055;28;20178;-61
2022/02/17 06:39:30;;;;;;;4.85;2.03;;;16.70;56.80;;;;;;5052174;28;20195;-61
2022/02/17 06:41:55;;;;;;;5.43;2.38;;;16.70;56.70;;;;;;5051869;28;20179;-61
2022/02/17 06:44:21;;;;;;;5.65;2.33;;;16.60;56.70;;;;;;5051473;28;20229;-61
2022/02/17 06:46:46;;;;;;;5.95;2.00;;;16.70;56.80;;;;;;5051948;28;20183;-61
2022/02/17 06:49:11;;;;;;;3.75;2.08;;;16.70;56.70;;;;;;5050727;28;20733;-60
2022/02/17 06:51:38;;;;;;;5.40;2.28;;;16.60;56.70;;;;;;5052045;28;20186;-61
2022/02/17 06:54:03;;;;;;;4.15;1.95;;;16.60;56.70;;;;;;5051531;28;20171;-61
2022/02/17 06:56:29;;;;;;;7.53;2.58;;;16.60;56.60;;;;;;5050988;28;20227;-61
2022/02/17 06:58:54;;;;;;;4.38;1.85;;;16.60;56.70;;;;;;5051767;28;20179;-59
2022/02/17 07:01:23;;;;;;;5.80;2.85;;;16.60;56.70;;;;;;5051900;28;20216;-60
2022/02/17 07:03:49;;;;;;;6.68;2.47;;;16.60;56.70;;;;;;5051300;28;20183;-60
2022/02/17 07:06:14;;;;;;;4.53;2.00;;;16.60;56.70;;;;;;5051606;28;20254;-60
2022/02/17 07:08:40;;;;;;;6.97;2.00;;;16.60;56.70;;;;;;5051287;28;20749;-67
2022/02/17 07:11:05;;;;;;;6.10;2.28;;;16.60;56.70;;;;;;5050804;28;20171;-68
2022/02/17 07:13:31;;;;;;;7.15;2.50;;;16.60;56.70;;;;;;5051730;28;20175;-67
2022/02/17 07:15:57;;;;;;;5.60;2.40;;;16.50;56.50;;;;;;5051279;28;20171;-67
2022/02/17 07:18:23;;;;;;;10.60;2.22;;;16.60;56.50;;;;;;5050859;28;20693;-68
2022/02/17 07:20:49;;;;;;;6.78;2.53;;;16.60;56.60;;;;;;5051532;28;20190;-67
2022/02/17 07:23:15;;;;;;;8.20;2.20;;;16.60;56.50;;;;;;5050994;28;20268;-68
2022/02/17 07:25:41;;;;;;;5.20;1.90;;;16.70;56.40;;;;;;5050823;28;20175;-67
2022/02/17 07:28:07;;;;;;;7.68;2.75;;;16.70;56.30;;;;;;5051027;28;20199;-69
2022/02/17 07:30:32;;;;;;;5.38;2.20;;;16.70;56.60;;;;;;5051418;28;20171;-68
2022/02/17 07:32:58;;;;;;;6.15;1.88;;;16.70;56.40;;;;;;5050258;28;20164;-68
2022/02/17 07:35:23;;;;;;;6.22;2.22;;;16.70;56.40;;;;;;5051254;28;20210;-70
2022/02/17 07:37:49;;;;;;;5.90;2.13;;;16.70;56.40;;;;;;5051165;28;20271;-69
2022/02/17 07:40:17;;;;;;;5.32;2.05;;;16.80;56.40;;;;;;5050109;28;20516;-70
2022/02/17 07:42:45;;;;;;;6.22;1.70;;;16.80;56.50;;;;;;5051336;28;20173;-68
2022/02/17 07:45:13;;;;;;;6.43;2.13;;;16.90;56.60;;;;;;5051080;28;20258;-67
2022/02/17 07:47:42;;;;;;;5.63;1.67;;;17.00;56.50;;;;;;5050329;28;20194;-68
2022/02/17 07:50:07;;;;;;;5.25;1.85;;;17.10;56.50;;;;;;5050769;28;20270;-68
2022/02/17 07:52:33;;;;;;;2.95;1.40;;;17.20;56.30;;;;;;5050204;28;20604;-69
2022/02/17 07:54:58;;;;;;;4.13;1.70;;;17.40;56.10;;;;;;5051042;28;20187;-70
2022/02/17 07:57:24;;;;;;;4.03;1.58;;;17.60;55.60;;;;;;5051195;28;20304;-71
2022/02/17 07:59:49;;;;;;;5.15;1.63;;;17.80;55.10;;;;;;5053779;28;20610;-69
2022/02/17 08:02:15;;;;;;;3.30;1.42;;;17.90;55.00;;;;;;5054213;28;20182;-69
2022/02/17 08:04:40;;;;;;;3.92;2.13;;;18.00;54.90;;;;;;5054522;28;20171;-70
2022/02/17 08:07:06;;;;;;;2.60;1.17;;;18.10;54.90;;;;;;5053474;28;20174;-70
2022/02/17 08:09:32;;;;;;;3.42;1.60;;;18.20;54.60;;;;;;5054886;28;20242;-69
2022/02/17 08:11:57;;;;;;;4.93;1.85;;;18.20;54.60;;;;;;5054254;28;20178;-67
2022/02/17 08:14:23;;;;;;;2.63;1.40;;;18.30;54.40;;;;;;5059428;28;20182;-68
2022/02/17 08:16:48;;;;;;;3.17;1.58;;;18.40;54.50;;;;;;5072719;28;20676;-68
2022/02/17 08:19:14;;;;;;;3.50;1.60;;;18.40;54.40;;;;;;5068381;28;20178;-66
2022/02/17 08:21:40;;;;;;;1.77;1.27;;;18.50;54.30;;;;;;5073746;28;20196;-66
2022/02/17 08:24:05;;;;;;;2.83;1.33;;;18.50;54.20;;;;;;5074188;28;20308;-67
2022/02/17 08:26:31;;;;;;;2.05;1.10;;;18.60;54.00;;;;;;5074391;28;20178;-67
2022/02/17 08:28:58;;;;;;;2.75;1.40;;;18.60;53.90;;;;;;5072857;28;20217;-70
2022/02/17 08:31:25;;;;;;;3.95;1.90;;;18.60;54.00;;;;;;5073836;28;20174;-69
2022/02/17 08:33:50;;;;;;;2.72;1.60;;;18.60;54.10;;;;;;5058468;28;20190;-68
2022/02/17 08:36:16;;;;;;;2.63;1.60;;;18.60;53.90;;;;;;5053155;28;20175;-68
2022/02/17 08:38:42;;;;;;;3.85;1.60;;;18.60;54.00;;;;;;5054084;28;20222;-68
2022/02/17 08:41:08;;;;;;;4.93;1.80;;;18.60;53.90;;;;;;5060981;28;20174;-67
2022/02/17 08:43:34;;;;;;;2.88;1.50;;;18.70;53.90;;;;;;5073413;28;20260;-67
2022/02/17 08:46:00;;;;;;;3.08;1.35;;;18.60;53.80;;;;;;5073543;28;20202;-67
2022/02/17 08:48:25;;;;;;;3.17;1.30;;;18.60;53.90;;;;;;5073945;28;20202;-67
2022/02/17 08:50:52;;;;;;;3.25;1.33;;;18.50;53.80;;;;;;5073052;28;20240;-67
2022/02/17 08:53:17;;;;;;;3.33;1.42;;;18.50;54.00;;;;;;5073732;28;20177;-67
2022/02/17 08:55:43;;;;;;;4.38;1.42;;;18.40;54.10;;;;;;5072951;28;20214;-67
2022/02/17 08:58:08;;;;;;;2.70;1.00;;;18.40;54.20;;;;;;5073117;28;20339;-67
2022/02/17 09:00:34;;;;;;;3.92;1.42;;;18.30;54.20;;;;;;5073918;28;20472;-68
2022/02/17 09:02:59;;;;;;;3.35;1.52;;;18.20;54.20;;;;;;5072335;28;20614;-68
2022/02/17 09:05:27;;;;;;;3.45;1.20;;;18.20;54.30;;;;;;5073484;28;20277;-68
2022/02/17 09:07:52;;;;;;;1.85;1.30;;;18.10;54.40;;;;;;5073400;28;20230;-68
2022/02/17 09:10:18;;;;;;;2.80;1.10;;;18.10;54.50;;;;;;5071795;28;20280;-67
2022/02/17 09:12:44;;;;;;;3.75;1.90;;;18.00;54.40;;;;;;5073541;28;20250;-67
2022/02/17 09:15:09;;;;;;;3.67;1.30;;;18.00;54.40;;;;;;5072966;28;20178;-68
2022/02/17 09:17:36;;;;;;;2.78;1.27;;;18.00;54.50;;;;;;5072473;28;20194;-67
2022/02/17 09:20:02;;;;;;;2.83;1.30;;;18.00;54.50;;;;;;5072927;28;20633;-67
2022/02/17 09:22:27;;;;;;;3.22;1.23;;;18.00;54.50;;;;;;5073445;28;20295;-67
2022/02/17 09:24:53;;;;;;;2.95;1.40;;;18.00;54.50;;;;;;5072258;28;20261;-67
2022/02/17 09:27:18;;;;;;;2.90;1.48;;;18.00;54.50;;;;;;5073226;28;20185;-67
2022/02/17 09:29:44;;;;;;;2.35;1.20;;;17.90;54.50;;;;;;5072904;28;20206;-68
2022/02/17 09:32:10;;;;;;;2.97;1.48;;;17.80;54.50;;;;;;5071933;28;20178;-69
2022/02/17 09:34:37;;;;;;;4.28;1.52;;;17.80;54.50;;;;;;5073080;28;20650;-69
2022/02/17 09:37:03;;;;;;;4.43;1.83;;;17.80;54.40;;;;;;5072740;28;20183;-68
2022/02/17 09:39:29;;;;;;;3.08;1.40;;;17.80;54.40;;;;;;5072206;28;20390;-68
2022/02/17 09:41:55;;;;;;;3.55;1.38;;;17.80;54.50;;;;;;5072523;28;20749;-68
2022/02/17 09:44:21;;;;;;;4.30;1.38;;;17.80;55.20;;;;;;5072732;28;20170;-68
2022/02/17 09:46:47;;;;;;;3.20;1.52;;;17.90;55.10;;;;;;5071935;28;20312;-67
2022/02/17 09:49:17;;;;;;;4.60;1.60;;;17.90;54.40;;;;;;5072137;28;20218;-68
2022/02/17 09:51:43;;;;;;;4.20;1.58;;;17.90;54.40;;;;;;5072788;28;20170;-68
2022/02/17 09:54:08;;;;;;;3.30;1.70;;;17.90;54.30;;;;;;5071640;28;20181;-67
2022/02/17 09:56:36;;;;;;;2.63;1.20;;;17.90;54.30;;;;;;5071935;28;20308;-68
2022/02/17 09:59:01;;;;;;;4.05;1.38;;;17.90;54.30;;;;;;5071396;28;20174;-67
2022/02/17 10:01:27;;;;;;;2.25;1.27;;;17.90;54.30;;;;;;5072207;28;20220;-67
2022/02/17 10:04:18;;;;;;;2.35;1.27;;;17.90;54.20;;;;;;5072284;28;20594;-68
2022/02/17 10:06:48;;;;;;;3.58;1.25;;;18.00;54.30;;;;;;5071540;28;20600;-69
2022/02/17 10:09:14;;;;;;;3.58;1.10;;;18.00;54.20;;;;;;5071951;28;20225;-68
2022/02/17 10:11:40;;;;;;;3.25;1.30;;;18.00;54.20;;;;;;5072098;28;20568;-68
2022/02/17 10:14:13;;;;;;;3.22;1.30;;;18.00;54.20;;;;;;5071284;28;20185;-68
2022/02/17 10:16:54;;;;;;;3.15;1.20;;;18.10;54.20;;;;;;5072440;28;20209;-68
2022/02/17 10:19:21;;;;;;;3.97;1.02;;;18.10;54.10;;;;;;5072379;28;20186;-67
2022/02/17 10:21:47;;;;;;;2.58;1.10;;;18.10;54.00;;;;;;5071159;28;20178;-67
2022/02/17 10:24:38;;;;;;;2.58;1.10;;;18.10;54.10;;;;;;5071916;28;20185;-68
2022/02/17 10:27:12;;;;;;;3.08;1.08;;;18.00;54.10;;;;;;5071737;28;20271;-68
2022/02/17 10:29:38;;;;;;;3.72;1.35;;;18.00;54.20;;;;;;5072226;28;20210;-69
2022/02/17 10:32:08;;;;;;;2.78;1.20;;;18.00;54.30;;;;;;5071683;28;20178;-68
2022/02/17 10:34:34;;;;;;;1.98;0.98;;;18.00;54.20;;;;;;5071268;28;20201;-69
2022/02/17 10:36:59;;;;;;;2.42;1.15;;;18.00;54.30;;;;;;5071453;28;20261;-68
2022/02/17 10:39:26;;;;;;;2.80;1.55;;;18.00;54.30;;;;;;5071709;28;20637;-68
2022/02/17 10:41:53;;;;;;;2.90;1.20;;;18.00;54.20;;;;;;5071380;28;20185;-68
2022/02/17 10:44:23;;;;;;;3.15;1.25;;;18.10;54.20;;;;;;5071769;28;20182;-68
2022/02/17 10:46:48;;;;;;;2.95;1.30;;;18.10;54.10;;;;;;5071673;28;20174;-67
2022/02/17 10:49:19;;;;;;;2.42;1.08;;;18.10;54.10;;;;;;5070718;28;20288;-68
2022/02/17 10:51:45;;;;;;;2.33;1.40;;;18.10;54.00;;;;;;5071659;28;20633;-67
2022/02/17 10:54:10;;;;;;;4.47;1.23;;;18.10;53.90;;;;;;5071540;28;20198;-68
2022/02/17 10:56:36;;;;;;;3.70;1.50;;;18.20;53.90;;;;;;5070787;28;20755;-68
2022/02/17 10:59:03;;;;;;;1.83;1.17;;;18.20;53.80;;;;;;5071433;28;20174;-68
2022/02/17 11:01:29;;;;;;;2.42;1.20;;;18.20;53.80;;;;;;5071597;28;20179;-68
2022/02/17 11:03:55;;;;;;;3.20;1.80;;;18.20;53.80;;;;;;5070654;28;20251;-68
2022/02/17 11:06:21;;;;;;;3.15;1.17;;;18.20;53.80;;;;;;5071666;28;20592;-69
2022/02/17 11:08:49;;;;;;;3.05;1.30;;;18.10;53.80;;;;;;5071580;28;20300;-68
2022/02/17 11:11:14;;;;;;;2.63;1.30;;;18.20;53.80;;;;;;5070798;28;20170;-67
2022/02/17 11:13:43;;;;;;;2.55;1.17;;;18.20;53.80;;;;;;5071337;28;20648;-67
2022/02/17 11:16:09;;;;;;;2.65;1.70;;;18.20;53.80;;;;;;5071261;28;20265;-68
2022/02/17 11:18:35;;;;;;;2.95;1.35;;;18.20;53.70;;;;;;5070647;28;20225;-68
2022/02/17 11:21:01;;;;;;;3.45;1.20;;;18.20;54.30;;;;;;5052887;28;20202;-66
2022/02/17 11:23:33;;;;;;;2.92;1.13;;;18.20;53.70;;;;;;5070859;28;20610;-67
2022/02/17 11:25:59;;;;;;;2.80;1.52;;;18.20;53.60;;;;;;5070936;28;20579;-67
2022/02/17 11:28:32;;;;;;;2.92;0.93;;;18.20;53.50;;;;;;5071117;28;20203;-68
2022/02/17 11:31:00;;;;;;;4.57;1.48;;;18.20;53.50;;;;;;5070258;28;20205;-68
2022/02/17 11:33:33;;;;;;;2.42;1.20;;;18.30;53.40;;;;;;5073273;28;20182;-68
2022/02/17 11:36:07;;;;;;;2.65;1.20;;;18.20;53.40;;;;;;5075088;28;20171;-68
2022/02/17 11:38:36;;;;;;;3.20;1.13;;;18.20;53.40;;;;;;5074370;28;20263;-68
2022/02/17 11:41:12;;;;;;;2.40;1.20;;;18.20;53.40;;;;;;5074803;28;20277;-67
2022/02/17 11:43:40;;;;;;;3.13;1.20;;;18.30;53.40;;;;;;5074791;28;20186;-68
2022/02/17 11:46:05;;;;;;;1.88;1.40;;;18.30;53.40;;;;;;5073946;28;20543;-67
2022/02/17 11:48:32;;;;;;;3.38;1.30;;;18.20;53.30;;;;;;5074908;28;20206;-67
2022/02/17 11:51:17;;;;;;;2.22;1.08;;;18.30;53.30;;;;;;5074526;28;20629;-66
2022/02/17 11:54:15;;;;;;;1.65;1.20;;;18.40;53.10;;;;;;5074088;28;20183;-67
2022/02/17 11:56:45;;;;;;;1.40;0.80;;;18.40;53.00;;;;;;5074594;28;20218;-65
2022/02/17 11:59:29;;;;;;;1.83;1.33;;;18.50;53.00;;;;;;5073792;28;20186;-67
2022/02/17 12:02:03;;;;;;;6.22;1.20;;;18.50;52.90;;;;;;5074422;28;20190;-67
2022/02/17 12:04:31;;;;;;;3.90;1.20;;;18.50;52.90;;;;;;5074476;28;20492;-68
2022/02/17 12:07:06;;;;;;;3.78;1.10;;;18.60;52.90;;;;;;5073648;28;20229;-67
2022/02/17 12:09:35;;;;;;;4.05;1.00;;;18.50;53.00;;;;;;5074628;28;20206;-67
2022/02/17 12:12:09;;;;;;;3.35;1.20;;;18.50;53.00;;;;;;5073872;28;20167;-69
2022/02/17 12:14:48;;;;;;;3.47;1.38;;;18.50;53.10;;;;;;5073808;28;20586;-69
2022/02/17 12:17:13;;;;;;;4.78;1.45;;;18.40;53.30;;;;;;5074429;28;20181;-70
2022/02/17 12:19:39;;;;;;;4.00;1.33;;;18.40;53.30;;;;;;5074165;28;20581;-66
2022/02/17 12:22:09;;;;;;;4.07;1.38;;;18.30;53.40;;;;;;5073495;28;20535;-67
2022/02/17 12:24:37;;;;;;;4.47;1.30;;;18.20;53.50;;;;;;5074380;28;20203;-67
2022/02/17 12:27:03;;;;;;;1.83;1.02;;;18.20;53.60;;;;;;5073096;28;20971;-66
2022/02/17 12:29:30;;;;;;;4.05;1.23;;;18.10;53.60;;;;;;5055937;28;20600;-68
2022/02/17 12:31:57;;;;;;;3.47;1.42;;;18.10;53.70;;;;;;5073577;28;20657;-68
2022/02/17 12:34:23;;;;;;;5.35;1.55;;;18.10;53.80;;;;;;5073385;28;20179;-69
2022/02/17 12:36:48;;;;;;;3.78;1.15;;;18.10;53.70;;;;;;5074033;28;20171;-68
2022/02/17 12:39:14;;;;;;;2.42;1.30;;;18.10;53.80;;;;;;5073596;28;20172;-68
2022/02/17 12:42:03;;;;;;;2.03;0.98;;;18.10;53.70;;;;;;5073224;28;20217;-67
2022/02/17 12:44:30;;;;;;;3.83;1.52;;;18.00;53.70;;;;;;5073558;28;20716;-70